LTBI/ESK METAR and TAF weather

Enter ICAO airport designator
Station Type Date Time Source
LTBI METAR 2022/01/25 04:50 UTC NOAA

LTBI 250450Z 32001KT 9999 SCT030 BKN100 M12/M14 Q1022 NOSIG RMK RWY08 VRB01KT


Station Type Date Time Source
LTBI Decoded METAR 2022/01/25 04:50 UTC NOAA

Eskisehir, Turkey (LTBI) 39-47N 030-34E 785M
Jan 24, 2022 - 11:50 PM EST / 2022.01.25 0450 UTC
Wind: from the NW (320 degrees) at 1 MPH (1 KT):0
Visibility: greater than 7 mile(s):0
Sky conditions: mostly cloudy
Temperature: 10 F (-12 C)
Dew Point: 6 F (-14 C)
Relative Humidity: 85%
Pressure (altimeter): 30.18 in. Hg (1022 hPa)
ob: LTBI 250450Z 32001KT 9999 SCT030 BKN100 M12/M14 Q1022 NOSIG RMK RWY08 VRB01KT
cycle: 5

Station Type Date Time Source
LTBI TAF 2012/05/11 09:09 UTC NOAA

TAF LTBI 110740Z 1109/1121 VRB02KT 6000 -SHRA BKN030 BKN090
TEMPO 1112/1116 33015KT 4000 -TSRA FEW025CB BKN030

Example: see airport list